createdAt,value
2023-04-25T00:00:39.860Z,24.73
2023-04-25T00:01:39.892Z,24.51
2023-04-25T00:02:40.009Z,24.61
2023-04-25T00:03:40.176Z,24.65
2023-04-25T00:04:40.209Z,24.60
2023-04-25T00:05:40.018Z,24.58
2023-04-25T00:06:39.982Z,24.60
2023-04-25T00:07:40.031Z,24.69
2023-04-25T00:08:40.055Z,24.70
2023-04-25T00:09:40.083Z,24.69
2023-04-25T00:10:40.080Z,24.78
2023-04-25T00:11:40.124Z,24.81
2023-04-25T00:12:40.138Z,24.90
2023-04-25T00:13:40.149Z,24.76
2023-04-25T00:14:40.144Z,24.85
2023-04-25T00:15:40.265Z,24.91
2023-04-25T00:16:40.235Z,24.86
2023-04-25T00:17:40.340Z,24.95
2023-04-25T00:18:40.272Z,24.84
2023-04-25T00:19:40.289Z,24.83
2023-04-25T00:20:40.265Z,24.86
2023-04-25T00:21:40.284Z,24.86
2023-04-25T00:22:40.305Z,24.71
2023-04-25T00:23:40.326Z,24.74
2023-04-25T00:24:40.349Z,24.82
2023-04-25T00:25:40.344Z,24.73
2023-04-25T00:26:40.354Z,24.74
2023-04-25T00:27:40.357Z,24.86
2023-04-25T00:28:40.402Z,24.92
2023-04-25T00:29:40.448Z,24.82
2023-04-25T00:30:40.441Z,24.92
2023-04-25T00:31:40.533Z,24.88
2023-04-25T00:32:40.478Z,24.99
2023-04-25T00:33:40.486Z,24.85
2023-04-25T00:34:40.504Z,24.89
2023-04-25T00:35:40.580Z,24.90
2023-04-25T00:36:40.579Z,24.99
2023-04-25T00:37:40.553Z,24.92
2023-04-25T00:38:40.595Z,24.91
2023-04-25T00:39:40.605Z,24.99
2023-04-25T00:40:40.607Z,25.01
2023-04-25T00:41:40.713Z,25.00
2023-04-25T00:42:40.737Z,24.98
2023-04-25T00:43:40.750Z,24.99
2023-04-25T00:44:40.760Z,25.06
2023-04-25T00:45:40.777Z,25.15
2023-04-25T00:46:40.844Z,25.03
2023-04-25T00:47:40.907Z,25.02
2023-04-25T00:48:40.874Z,25.00
2023-04-25T00:49:40.880Z,25.01
2023-04-25T00:50:40.922Z,25.04
2023-04-25T00:51:40.932Z,25.07
2023-04-25T00:52:40.935Z,25.09
2023-04-25T00:53:41.028Z,25.08
2023-04-25T00:54:40.959Z,25.10
2023-04-25T00:55:40.973Z,25.08
2023-04-25T00:56:40.960Z,25.12
2023-04-25T00:57:41.030Z,25.14
2023-04-25T00:58:41.023Z,25.16
2023-04-25T00:59:41.061Z,25.12
2023-04-25T01:00:41.098Z,25.16
2023-04-25T01:01:41.127Z,25.16
2023-04-25T01:02:41.404Z,25.13
2023-04-25T01:03:41.280Z,25.13
2023-04-25T01:04:41.137Z,25.12
2023-04-25T01:05:41.126Z,25.20
2023-04-25T01:06:41.168Z,25.26
2023-04-25T01:07:41.182Z,25.23
2023-04-25T01:08:41.216Z,25.26
2023-04-25T01:09:41.225Z,25.20
2023-04-25T01:10:41.249Z,25.24
2023-04-25T01:11:41.270Z,25.24
2023-04-25T01:12:41.266Z,25.28
2023-04-25T01:13:41.302Z,25.27
2023-04-25T01:14:41.346Z,25.25
2023-04-25T01:15:41.363Z,25.33
2023-04-25T01:16:41.389Z,25.29
2023-04-25T01:17:41.407Z,25.33
2023-04-25T01:18:41.395Z,25.34
2023-04-25T01:19:41.421Z,25.33
2023-04-25T01:20:41.425Z,25.37
2023-04-25T01:21:41.465Z,25.40
2023-04-25T01:22:41.484Z,25.35
2023-04-25T01:23:41.502Z,25.39
2023-04-25T01:24:41.523Z,25.37
2023-04-25T01:25:41.540Z,25.39
2023-04-25T01:26:41.566Z,25.39
2023-04-25T01:27:41.550Z,25.40
2023-04-25T01:28:41.597Z,25.42
2023-04-25T01:29:41.610Z,25.43
2023-04-25T01:30:41.605Z,25.44
2023-04-25T01:31:41.697Z,25.41
2023-04-25T01:32:41.717Z,25.43
2023-04-25T01:33:41.739Z,25.47
2023-04-25T01:34:41.729Z,25.48
2023-04-25T01:35:41.736Z,25.48
2023-04-25T01:36:41.755Z,25.50
2023-04-25T01:37:41.792Z,25.46
2023-04-25T01:38:41.768Z,25.49
2023-04-25T01:39:41.900Z,25.52
2023-04-25T01:40:41.846Z,25.49
2023-04-25T01:41:41.917Z,25.49
2023-04-25T01:42:41.902Z,25.49
2023-04-25T01:43:41.913Z,25.52
2023-04-25T01:44:41.919Z,25.51
2023-04-25T01:45:41.950Z,25.53
2023-04-25T01:46:42.010Z,25.52
2023-04-25T01:47:41.999Z,25.52
2023-04-25T01:48:42.003Z,25.53
2023-04-25T01:49:42.053Z,25.53
2023-04-25T01:50:42.059Z,25.52
2023-04-25T01:51:42.054Z,25.51
2023-04-25T01:52:42.122Z,25.51
2023-04-25T01:53:42.134Z,25.52
2023-04-25T01:54:42.157Z,25.52
2023-04-25T01:55:42.150Z,25.55
2023-04-25T01:56:42.233Z,25.48
2023-04-25T01:57:42.189Z,25.53
2023-04-25T01:58:42.214Z,25.54
2023-04-25T01:59:42.240Z,25.52
2023-04-25T02:00:42.254Z,25.53
2023-04-25T02:01:42.317Z,25.51
2023-04-25T02:02:42.379Z,25.48
2023-04-25T02:03:42.459Z,25.51
2023-04-25T02:04:42.562Z,25.51
2023-04-25T02:05:42.397Z,25.52
2023-04-25T02:06:42.384Z,25.54
2023-04-25T02:07:42.381Z,25.55
2023-04-25T02:08:42.410Z,25.53
2023-04-25T02:09:42.438Z,25.55
2023-04-25T02:10:42.456Z,25.56
2023-04-25T02:11:42.514Z,25.58
2023-04-25T02:12:42.505Z,25.54
2023-04-25T02:13:42.508Z,25.54
2023-04-25T02:14:42.579Z,25.55
2023-04-25T02:15:42.674Z,25.58
2023-04-25T02:16:42.696Z,25.57
2023-04-25T02:17:42.633Z,25.58
2023-04-25T02:18:42.634Z,25.53
2023-04-25T02:19:42.667Z,25.57
2023-04-25T02:20:42.680Z,25.58
2023-04-25T02:21:42.718Z,25.59
2023-04-25T02:22:42.739Z,25.62
2023-04-25T02:23:42.778Z,25.62
2023-04-25T02:24:42.819Z,25.63
2023-04-25T02:25:42.799Z,25.64
2023-04-25T02:26:42.859Z,25.63
2023-04-25T02:27:42.858Z,25.66
2023-04-25T02:28:42.882Z,25.64
2023-04-25T02:29:42.934Z,25.63
2023-04-25T02:30:42.942Z,25.64
2023-04-25T02:31:43.040Z,25.65
2023-04-25T02:32:43.014Z,25.68
2023-04-25T02:33:42.998Z,25.67
2023-04-25T02:34:43.047Z,25.67
2023-04-25T02:35:43.065Z,25.69
2023-04-25T02:36:43.096Z,25.70
2023-04-25T02:37:43.124Z,25.72
2023-04-25T02:38:43.157Z,25.74
2023-04-25T02:39:43.149Z,25.76
2023-04-25T02:40:43.196Z,25.78
2023-04-25T02:41:43.255Z,25.75
2023-04-25T02:42:43.253Z,25.78
2023-04-25T02:43:43.274Z,25.77
2023-04-25T02:44:43.296Z,25.82
2023-04-25T02:45:43.320Z,25.84
2023-04-25T02:46:43.353Z,25.83
2023-04-25T02:47:43.358Z,25.83
2023-04-25T02:48:43.378Z,25.83
2023-04-25T02:49:43.434Z,25.82
2023-04-25T02:50:43.424Z,25.82
2023-04-25T02:51:43.475Z,25.82
2023-04-25T02:52:43.488Z,25.83
2023-04-25T02:53:43.499Z,25.82
2023-04-25T02:54:43.529Z,25.83
2023-04-25T02:55:43.572Z,25.84
2023-04-25T02:56:43.616Z,25.85
2023-04-25T02:57:43.620Z,25.87
2023-04-25T02:58:43.639Z,25.87
2023-04-25T02:59:43.700Z,25.88
2023-04-25T03:00:43.735Z,25.92
2023-04-25T03:01:43.731Z,25.94
2023-04-25T03:02:43.785Z,25.92
2023-04-25T03:03:43.912Z,25.95
2023-04-25T03:04:43.880Z,25.93
2023-04-25T03:05:43.827Z,25.98
2023-04-25T03:06:43.850Z,25.99
2023-04-25T03:07:43.893Z,26.00
2023-04-25T03:08:44.004Z,25.97
2023-04-25T03:09:43.918Z,25.97
2023-04-25T03:10:43.946Z,26.02
2023-04-25T03:11:43.972Z,26.02
2023-04-25T03:12:44.032Z,26.09
2023-04-25T03:13:44.021Z,26.13
2023-04-25T03:14:44.034Z,26.22
2023-04-25T03:15:44.075Z,26.33
2023-04-25T03:16:44.119Z,26.41
2023-04-25T03:17:44.159Z,26.32
2023-04-25T03:18:44.126Z,26.30
2023-04-25T03:19:44.166Z,26.35
2023-04-25T03:20:44.187Z,26.35
2023-04-25T03:21:44.193Z,26.33
2023-04-25T03:22:44.221Z,26.32
2023-04-25T03:23:44.243Z,26.41
2023-04-25T03:24:44.338Z,26.42
2023-04-25T03:25:44.355Z,26.47
2023-04-25T03:26:44.421Z,26.53
2023-04-25T03:27:44.375Z,26.58
2023-04-25T03:28:44.358Z,26.68
2023-04-25T03:29:44.409Z,26.67
2023-04-25T03:30:44.450Z,26.65
2023-04-25T03:31:44.449Z,26.70
2023-04-25T03:32:44.501Z,26.66
2023-04-25T03:33:44.578Z,26.71
2023-04-25T03:34:44.460Z,26.70
2023-04-25T03:35:44.581Z,26.67
2023-04-25T03:36:44.552Z,26.64
2023-04-25T03:37:44.567Z,26.65
2023-04-25T03:38:44.573Z,26.66
2023-04-25T03:39:44.543Z,26.61
2023-04-25T03:40:44.550Z,26.55
2023-04-25T03:41:44.619Z,26.53
2023-04-25T03:42:45.176Z,26.53
2023-04-25T03:43:44.631Z,26.49
2023-04-25T03:44:44.669Z,26.50
2023-04-25T03:45:44.651Z,26.42
2023-04-25T03:46:44.674Z,26.34
2023-04-25T03:47:44.772Z,26.29
2023-04-25T03:48:44.806Z,26.22
2023-04-25T03:49:44.842Z,26.23
2023-04-25T03:50:44.883Z,26.19
2023-04-25T03:51:44.940Z,26.17
2023-04-25T03:52:44.989Z,26.16
2023-04-25T03:53:45.041Z,26.12
2023-04-25T03:54:45.130Z,26.12
2023-04-25T03:55:45.209Z,26.06
2023-04-25T03:56:45.266Z,26.03
2023-04-25T03:57:45.322Z,26.04
2023-04-25T03:58:45.338Z,25.99
2023-04-25T03:59:45.421Z,25.98
2023-04-25T04:00:45.473Z,25.96
2023-04-25T04:01:45.560Z,25.95
2023-04-25T04:02:45.932Z,25.96
2023-04-25T04:03:45.909Z,25.93
2023-04-25T04:04:45.954Z,25.92
2023-04-25T04:05:45.840Z,25.92
2023-04-25T04:06:45.828Z,25.91
2023-04-25T04:07:45.854Z,25.90
2023-04-25T04:08:45.923Z,25.88
2023-04-25T04:09:46.027Z,25.86
2023-04-25T04:10:46.028Z,25.88
2023-04-25T04:11:46.039Z,25.87
2023-04-25T04:12:46.121Z,25.86
2023-04-25T04:13:46.173Z,25.86
2023-04-25T04:14:46.201Z,25.86
2023-04-25T04:15:46.262Z,25.85
2023-04-25T04:16:46.287Z,25.85
2023-04-25T04:17:46.348Z,25.87
2023-04-25T04:18:46.376Z,25.85
2023-04-25T04:19:46.465Z,25.85
2023-04-25T04:20:46.479Z,25.86
2023-04-25T04:21:46.515Z,25.85
2023-04-25T04:22:46.544Z,25.86
2023-04-25T04:23:46.579Z,25.87
2023-04-25T04:24:46.634Z,25.85
2023-04-25T04:25:46.657Z,25.83
2023-04-25T04:26:46.698Z,25.85
2023-04-25T04:27:46.778Z,25.85
2023-04-25T04:28:46.788Z,25.82
2023-04-25T04:29:46.866Z,25.83
2023-04-25T04:30:46.902Z,25.82
2023-04-25T04:31:46.941Z,25.82
2023-04-25T04:32:48.391Z,25.81
2023-04-25T04:33:46.957Z,25.83
2023-04-25T04:34:46.955Z,25.80
2023-04-25T04:35:46.938Z,25.81
2023-04-25T04:36:46.955Z,25.84
2023-04-25T04:37:46.962Z,25.81
2023-04-25T04:38:46.919Z,25.82
2023-04-25T04:39:46.961Z,25.82
2023-04-25T04:40:46.892Z,25.79
2023-04-25T04:41:46.928Z,25.82
2023-04-25T04:42:46.920Z,25.80
2023-04-25T04:43:46.905Z,25.81
2023-04-25T04:44:46.869Z,25.79
2023-04-25T04:45:46.930Z,25.81
2023-04-25T04:46:46.941Z,25.82
2023-04-25T04:47:46.928Z,25.81
2023-04-25T04:48:46.858Z,25.85
2023-04-25T04:49:46.886Z,25.85
2023-04-25T04:50:46.858Z,25.83
2023-04-25T04:51:46.864Z,25.83
2023-04-25T04:52:46.819Z,25.83
2023-04-25T04:53:46.813Z,25.83
2023-04-25T04:54:46.814Z,25.83
2023-04-25T04:55:46.782Z,25.84
2023-04-25T04:56:46.834Z,25.85
2023-04-25T04:57:46.853Z,25.85
2023-04-25T04:58:46.787Z,25.86
2023-04-25T04:59:46.805Z,25.88
2023-04-25T05:00:46.798Z,25.88
2023-04-25T05:01:46.775Z,25.86
2023-04-25T05:02:46.851Z,25.85
2023-04-25T05:03:46.972Z,25.88
2023-04-25T05:04:46.803Z,25.88
2023-04-25T05:05:46.764Z,25.87
2023-04-25T05:06:48.774Z,25.89
2023-04-25T05:07:46.745Z,25.90
2023-04-25T05:08:46.768Z,25.92
2023-04-25T05:09:46.818Z,25.90
2023-04-25T05:10:46.831Z,25.90
2023-04-25T05:11:46.894Z,25.91
2023-04-25T05:12:46.935Z,25.90
2023-04-25T05:13:46.957Z,25.93
2023-04-25T05:14:47.013Z,25.92
2023-04-25T05:15:47.080Z,25.89
2023-04-25T05:16:47.175Z,25.91
2023-04-25T05:17:47.163Z,25.89
2023-04-25T05:18:47.152Z,25.90
2023-04-25T05:19:47.295Z,25.89
2023-04-25T05:20:47.246Z,25.91
2023-04-25T05:21:47.305Z,25.96
2023-04-25T05:22:47.380Z,25.92
2023-04-25T05:23:47.375Z,25.92
2023-04-25T05:24:47.441Z,25.90
2023-04-25T05:25:47.481Z,25.91
2023-04-25T05:26:47.545Z,25.93
2023-04-25T05:27:47.580Z,25.89
2023-04-25T05:28:47.626Z,25.94
2023-04-25T05:29:47.690Z,25.88
2023-04-25T05:30:48.195Z,25.88
2023-04-25T05:31:47.818Z,26.08
2023-04-25T05:32:47.902Z,26.05
2023-04-25T05:33:47.953Z,26.08
2023-04-25T05:34:48.267Z,26.18
2023-04-25T05:35:47.980Z,26.27
2023-04-25T05:36:48.041Z,26.62
2023-04-25T05:37:48.103Z,26.73
2023-04-25T05:38:48.131Z,26.54
2023-04-25T05:39:48.257Z,26.80
2023-04-25T05:40:48.708Z,26.89
2023-04-25T05:41:48.306Z,27.05
2023-04-25T05:42:48.302Z,26.77
2023-04-25T05:43:48.602Z,26.79
2023-04-25T05:44:48.420Z,26.70
2023-04-25T05:45:55.777Z,26.91
2023-04-25T05:46:48.436Z,27.27
2023-04-25T05:47:49.223Z,27.59
2023-04-25T05:48:48.452Z,27.62
2023-04-25T05:49:48.387Z,26.93
2023-04-25T05:50:48.408Z,27.65
2023-04-25T05:51:48.402Z,27.64
2023-04-25T05:52:48.424Z,28.35
2023-04-25T05:53:48.569Z,28.42
2023-04-25T05:54:48.395Z,28.65
2023-04-25T05:55:48.394Z,28.65
2023-04-25T05:56:48.438Z,28.92
2023-04-25T05:57:50.073Z,29.15
2023-04-25T05:58:48.388Z,29.06
2023-04-25T05:59:48.350Z,29.17
2023-04-25T06:00:48.361Z,29.03
2023-04-25T06:01:48.342Z,29.50
2023-04-25T06:02:48.583Z,29.32
2023-04-25T06:03:48.671Z,28.81
2023-04-25T06:04:48.578Z,29.19
2023-04-25T06:05:48.383Z,29.25
2023-04-25T06:06:48.327Z,29.17
2023-04-25T06:07:48.302Z,29.16
2023-04-25T06:08:48.298Z,29.27
2023-04-25T06:09:48.301Z,28.99
2023-04-25T06:10:48.751Z,28.48
2023-04-25T06:11:48.250Z,28.89
2023-04-25T06:12:48.337Z,28.77
2023-04-25T06:13:48.252Z,28.98
2023-04-25T06:14:48.238Z,29.24
2023-04-25T06:15:48.299Z,28.96
2023-04-25T06:16:48.243Z,29.18
2023-04-25T06:17:48.259Z,27.26
2023-04-25T06:18:48.196Z,27.12
2023-04-25T06:19:48.226Z,27.19
2023-04-25T06:20:48.217Z,27.28
2023-04-25T06:21:48.216Z,27.38
2023-04-25T06:22:48.220Z,27.39
2023-04-25T06:23:48.214Z,27.44
2023-04-25T06:24:48.162Z,27.48
2023-04-25T06:25:48.231Z,27.41
2023-04-25T06:26:48.181Z,27.43
2023-04-25T06:27:48.159Z,27.37
2023-04-25T06:28:48.708Z,27.05
2023-04-25T06:29:48.164Z,26.93
2023-04-25T06:30:48.173Z,27.40
2023-04-25T06:31:48.249Z,27.71
2023-04-25T06:32:48.132Z,27.57
2023-04-25T06:33:48.332Z,27.87
2023-04-25T06:34:48.124Z,28.06
2023-04-25T06:35:48.131Z,28.13
2023-04-25T06:36:48.139Z,28.16
2023-04-25T06:37:48.089Z,27.98
2023-04-25T06:38:48.197Z,27.74
2023-04-25T06:39:48.141Z,27.47
2023-04-25T06:40:48.123Z,27.87
2023-04-25T06:41:48.221Z,28.10
2023-04-25T06:42:48.081Z,28.17
2023-04-25T06:43:48.051Z,28.23
2023-04-25T06:44:48.080Z,28.28
2023-04-25T06:45:48.720Z,28.44
2023-04-25T06:46:48.280Z,28.55
2023-04-25T06:47:48.073Z,28.51
2023-04-25T06:48:48.161Z,28.13
2023-04-25T06:49:48.746Z,28.43
2023-04-25T06:50:48.027Z,28.23
2023-04-25T06:51:48.024Z,28.49
2023-04-25T06:52:48.022Z,28.60
2023-04-25T06:53:48.060Z,28.76
2023-04-25T06:54:48.120Z,28.86
2023-04-25T06:55:48.105Z,28.96
2023-04-25T06:56:48.157Z,28.93
2023-04-25T06:57:48.198Z,28.95
2023-04-25T06:58:48.423Z,28.86
2023-04-25T06:59:48.199Z,28.83
2023-04-25T07:00:48.269Z,28.78
2023-04-25T07:01:48.775Z,28.74
2023-04-25T07:02:48.477Z,28.59
2023-04-25T07:03:48.668Z,28.68
2023-04-25T07:04:48.435Z,28.66
2023-04-25T07:05:48.435Z,28.74
2023-04-25T07:06:48.459Z,28.81
2023-04-25T07:07:48.440Z,28.83
2023-04-25T07:08:48.615Z,28.79
2023-04-25T07:09:48.528Z,28.76
2023-04-25T07:10:49.937Z,28.74
2023-04-25T07:11:48.645Z,28.70
2023-04-25T07:12:48.582Z,28.64
2023-04-25T07:13:48.606Z,28.64
2023-04-25T07:14:48.606Z,28.73
2023-04-25T07:15:48.621Z,28.72
2023-04-25T07:16:48.666Z,28.78
2023-04-25T07:17:48.670Z,28.77
2023-04-25T07:18:48.798Z,28.85
2023-04-25T07:19:48.623Z,28.77
2023-04-25T07:20:48.616Z,28.83
2023-04-25T07:21:48.852Z,28.82
2023-04-25T07:22:48.617Z,28.80
2023-04-25T07:23:48.638Z,28.92
2023-04-25T07:24:48.637Z,28.81
2023-04-25T07:25:48.667Z,28.96
2023-04-25T07:26:48.673Z,29.02
2023-04-25T07:27:48.705Z,29.18
2023-04-25T07:28:48.836Z,29.23
2023-04-25T07:29:48.770Z,29.30
2023-04-25T07:30:48.782Z,29.33
2023-04-25T07:31:49.258Z,29.32
2023-04-25T07:32:48.898Z,29.27
2023-04-25T07:33:48.898Z,29.43
2023-04-25T07:34:48.899Z,30.07
2023-04-25T07:35:48.897Z,30.12
2023-04-25T07:36:49.265Z,30.36
2023-04-25T07:37:49.024Z,30.83
2023-04-25T07:38:49.223Z,30.80
2023-04-25T07:39:49.147Z,31.93
2023-04-25T07:40:49.232Z,31.81
2023-04-25T07:41:49.326Z,31.82
2023-04-25T07:42:49.280Z,31.21
2023-04-25T07:43:49.291Z,31.16
2023-04-25T07:44:49.336Z,30.72
2023-04-25T07:45:49.362Z,30.17
2023-04-25T07:46:49.801Z,28.39
2023-04-25T07:47:49.360Z,29.14
2023-04-25T07:48:49.686Z,28.24
2023-04-25T07:49:49.407Z,27.69
2023-04-25T07:50:49.331Z,27.42
2023-04-25T07:51:49.365Z,27.10
2023-04-25T07:52:49.392Z,26.71
2023-04-25T07:53:50.680Z,27.30
2023-04-25T07:54:49.353Z,27.13
2023-04-25T07:55:49.416Z,26.77
2023-04-25T07:56:53.258Z,25.70
2023-04-25T07:57:49.380Z,25.56
2023-04-25T07:58:49.654Z,25.99
2023-04-25T07:59:49.360Z,26.57
2023-04-25T08:00:50.299Z,27.74
2023-04-25T08:01:49.396Z,27.67
2023-04-25T08:02:49.428Z,27.75
2023-04-25T08:03:49.609Z,26.50
2023-04-25T08:04:49.484Z,27.43
2023-04-25T08:05:49.517Z,27.05
2023-04-25T08:06:49.342Z,27.12
2023-04-25T08:07:49.338Z,27.36
2023-04-25T08:08:49.601Z,27.18
2023-04-25T08:09:49.290Z,26.98
2023-04-25T08:10:49.380Z,27.00
2023-04-25T08:11:49.333Z,27.33
2023-04-25T08:12:49.294Z,27.38
2023-04-25T08:13:49.279Z,26.29
2023-04-25T08:14:49.270Z,26.68
2023-04-25T08:15:49.287Z,26.28
2023-04-25T08:16:49.238Z,25.58
2023-04-25T08:17:49.300Z,25.68
2023-04-25T08:18:49.418Z,25.92
2023-04-25T08:19:49.242Z,25.86
2023-04-25T08:20:49.198Z,25.59
2023-04-25T08:21:49.304Z,26.01
2023-04-25T08:22:49.207Z,26.63
2023-04-25T08:23:49.227Z,26.12
2023-04-25T08:24:49.256Z,26.02
2023-04-25T08:25:49.201Z,26.65
2023-04-25T08:26:49.197Z,26.42
2023-04-25T08:27:49.178Z,26.32
2023-04-25T08:28:49.377Z,25.67
2023-04-25T08:29:49.180Z,25.88
2023-04-25T08:30:49.197Z,26.70
2023-04-25T08:31:49.444Z,26.52
2023-04-25T08:32:49.217Z,25.90
2023-04-25T08:33:49.545Z,25.72
2023-04-25T08:34:49.334Z,25.37
2023-04-25T08:35:49.146Z,25.32
2023-04-25T08:36:49.326Z,25.17
2023-04-25T08:37:49.238Z,24.74
2023-04-25T08:38:49.575Z,24.54
2023-04-25T08:39:49.302Z,24.60
2023-04-25T08:40:49.306Z,24.69
2023-04-25T08:41:49.399Z,24.55
2023-04-25T08:42:49.405Z,23.94
2023-04-25T08:43:49.441Z,23.89
2023-04-25T08:44:49.476Z,24.21
2023-04-25T08:45:49.509Z,24.32
2023-04-25T08:46:50.736Z,24.35
2023-04-25T08:47:50.060Z,24.28
2023-04-25T08:48:49.809Z,24.54
2023-04-25T08:49:49.809Z,24.73
2023-04-25T08:50:49.818Z,24.81
2023-04-25T08:51:50.351Z,25.49
2023-04-25T08:52:49.861Z,26.22
2023-04-25T08:53:53.658Z,26.26
2023-04-25T08:54:50.973Z,26.16
2023-04-25T08:55:49.898Z,26.15
2023-04-25T08:56:49.896Z,25.07
2023-04-25T08:57:50.313Z,25.72
2023-04-25T08:58:50.014Z,25.89
2023-04-25T08:59:49.886Z,25.70
2023-04-25T09:00:49.881Z,25.54
2023-04-25T09:01:49.872Z,25.72
2023-04-25T09:02:49.995Z,25.94
2023-04-25T09:03:49.909Z,26.83
2023-04-25T09:04:49.845Z,26.91
2023-04-25T09:05:49.845Z,26.93
2023-04-25T09:06:49.851Z,26.52
2023-04-25T09:07:50.820Z,26.54
2023-04-25T09:08:49.826Z,26.98
2023-04-25T09:09:49.857Z,26.48
2023-04-25T09:10:49.935Z,26.18
2023-04-25T09:11:49.971Z,25.48
2023-04-25T09:12:49.978Z,24.95
2023-04-25T09:13:50.191Z,24.68
2023-04-25T09:14:50.023Z,24.39
2023-04-25T09:15:50.058Z,24.44
2023-04-25T09:16:50.159Z,24.90
2023-04-25T09:17:50.396Z,25.08
2023-04-25T09:18:50.252Z,24.54
2023-04-25T09:19:50.262Z,25.33
2023-04-25T09:21:00.096Z,24.76
2023-04-25T09:21:51.297Z,24.60
2023-04-25T09:22:50.294Z,24.77
2023-04-25T09:23:50.452Z,24.27
2023-04-25T09:24:50.295Z,24.46
2023-04-25T09:25:50.288Z,25.07
2023-04-25T09:26:50.315Z,25.34
2023-04-25T09:27:50.270Z,25.37
2023-04-25T09:28:50.265Z,24.45
2023-04-25T09:29:50.266Z,23.21
2023-04-25T09:30:50.255Z,23.98
2023-04-25T09:31:50.310Z,23.56
2023-04-25T09:32:50.833Z,24.36
2023-04-25T09:33:50.694Z,24.35
2023-04-25T09:34:50.470Z,24.82
2023-04-25T09:35:50.525Z,24.78
2023-04-25T09:36:50.593Z,25.38
2023-04-25T09:37:50.879Z,25.46
2023-04-25T09:38:50.642Z,25.68
2023-04-25T09:39:50.707Z,25.25
2023-04-25T09:40:50.747Z,25.64
2023-04-25T09:41:50.717Z,25.93
2023-04-25T09:42:50.835Z,26.27
2023-04-25T09:43:50.789Z,26.30
2023-04-25T09:44:50.848Z,25.99
2023-04-25T09:45:50.940Z,25.99
2023-04-25T09:46:50.909Z,25.81
2023-04-25T09:47:51.352Z,25.79
2023-04-25T09:48:50.979Z,25.50
2023-04-25T09:49:51.081Z,25.20
2023-04-25T09:50:51.126Z,25.34
2023-04-25T09:51:51.851Z,25.47
2023-04-25T09:52:51.216Z,25.09
2023-04-25T09:53:51.484Z,24.89
2023-04-25T09:54:51.298Z,25.20
2023-04-25T09:55:51.357Z,25.04
2023-04-25T09:56:51.392Z,24.78
2023-04-25T09:57:51.879Z,24.47
2023-04-25T09:58:51.473Z,24.39
2023-04-25T09:59:51.596Z,24.24
2023-04-25T10:00:51.638Z,24.50
2023-04-25T10:01:51.888Z,24.59
2023-04-25T10:02:51.848Z,24.68
2023-04-25T10:03:52.029Z,24.65
2023-04-25T10:04:52.090Z,24.65
2023-04-25T10:05:52.065Z,24.63
2023-04-25T10:06:52.130Z,24.71
2023-04-25T10:07:52.233Z,24.49
2023-04-25T10:08:52.291Z,24.09
2023-04-25T10:09:52.239Z,24.00
2023-04-25T10:10:52.271Z,24.21
2023-04-25T10:11:52.270Z,24.09
2023-04-25T10:12:52.257Z,24.08
2023-04-25T10:13:52.587Z,24.22
2023-04-25T10:14:52.905Z,24.26
2023-04-25T10:15:53.590Z,24.32
2023-04-25T10:16:52.342Z,24.40
2023-04-25T10:17:52.402Z,24.32
2023-04-25T10:18:52.463Z,24.42
2023-04-25T10:19:52.484Z,24.34
2023-04-25T10:20:54.252Z,24.25
2023-04-25T10:21:52.649Z,24.35
2023-04-25T10:22:52.681Z,24.29
2023-04-25T10:23:52.912Z,24.29
2023-04-25T10:24:52.744Z,24.36
2023-04-25T10:25:52.844Z,24.38
2023-04-25T10:26:52.829Z,24.11
2023-04-25T10:27:53.351Z,24.21
2023-04-25T10:28:53.114Z,24.04
2023-04-25T10:29:53.151Z,24.09
2023-04-25T10:30:53.191Z,24.00
2023-04-25T10:31:53.353Z,24.06
2023-04-25T10:32:53.266Z,24.13
2023-04-25T10:33:54.359Z,24.27
2023-04-25T10:34:53.350Z,24.25
2023-04-25T10:35:53.470Z,24.21
2023-04-25T10:36:53.499Z,24.33
2023-04-25T10:37:53.852Z,24.33
2023-04-25T10:38:53.830Z,24.40
2023-04-25T10:39:53.656Z,25.41
2023-04-25T10:40:53.704Z,25.55
2023-04-25T10:41:53.758Z,25.93
2023-04-25T10:42:53.823Z,26.11
2023-04-25T10:43:53.998Z,26.72
2023-04-25T10:44:53.941Z,27.01
2023-04-25T10:45:53.956Z,27.80
2023-04-25T10:46:54.068Z,27.93
2023-04-25T10:47:54.067Z,28.08
2023-04-25T10:48:54.777Z,28.64
2023-04-25T10:49:54.117Z,28.78
2023-04-25T10:50:55.062Z,29.46
2023-04-25T10:51:55.764Z,29.51
2023-04-25T10:52:53.991Z,29.39
2023-04-25T10:53:54.362Z,29.44
2023-04-25T10:54:54.006Z,29.47
2023-04-25T10:55:53.986Z,29.60
2023-04-25T10:56:53.985Z,29.76
2023-04-25T10:57:54.086Z,29.87
2023-04-25T10:58:54.396Z,29.99
2023-04-25T10:59:54.092Z,30.12
2023-04-25T11:00:57.501Z,30.27
2023-04-25T11:01:54.123Z,30.41
2023-04-25T11:02:54.051Z,30.37
2023-04-25T11:03:54.149Z,30.43
2023-04-25T11:04:53.976Z,30.36
2023-04-25T11:05:58.331Z,30.40
2023-04-25T11:06:58.225Z,30.54
2023-04-25T11:08:03.880Z,30.63
2023-04-25T11:08:55.397Z,30.34
2023-04-25T11:09:53.922Z,30.30
2023-04-25T11:10:53.956Z,30.28
2023-04-25T11:11:53.892Z,30.32
2023-04-25T11:12:53.893Z,30.06
2023-04-25T11:13:53.898Z,29.89
2023-04-25T11:14:53.962Z,29.22
2023-04-25T11:16:03.249Z,29.93
2023-04-25T11:16:54.922Z,29.84
2023-04-25T11:17:53.902Z,29.97
2023-04-25T11:18:53.984Z,30.02
2023-04-25T11:19:54.400Z,29.64
2023-04-25T11:20:53.868Z,29.74
2023-04-25T11:21:53.828Z,29.74
2023-04-25T11:22:53.826Z,29.92
2023-04-25T11:23:54.029Z,30.14
2023-04-25T11:24:53.802Z,30.17
2023-04-25T11:25:53.832Z,30.22
2023-04-25T11:26:53.774Z,30.25
2023-04-25T11:27:53.801Z,30.24
2023-04-25T11:28:53.900Z,30.24
2023-04-25T11:29:53.783Z,30.38
2023-04-25T11:30:53.893Z,30.57
2023-04-25T11:31:53.835Z,30.57
2023-04-25T11:32:53.815Z,30.53
2023-04-25T11:33:53.898Z,30.46
2023-04-25T11:34:53.785Z,30.35
2023-04-25T11:35:53.747Z,30.27
2023-04-25T11:36:53.759Z,30.25
2023-04-25T11:37:53.737Z,30.24
2023-04-25T11:38:53.921Z,30.27
2023-04-25T11:39:53.697Z,30.28
2023-04-25T11:40:53.714Z,30.29
2023-04-25T11:41:53.673Z,30.28
2023-04-25T11:42:55.212Z,30.25
2023-04-25T11:43:53.903Z,30.27
2023-04-25T11:44:53.668Z,30.13
2023-04-25T11:45:53.728Z,30.20
2023-04-25T11:46:53.717Z,30.23
2023-04-25T11:47:53.844Z,30.16
2023-04-25T11:48:53.986Z,30.13
2023-04-25T11:49:53.802Z,30.10
2023-04-25T11:50:53.767Z,29.96
2023-04-25T11:51:53.823Z,29.92
2023-04-25T11:52:53.809Z,29.99
2023-04-25T11:53:53.813Z,29.97
2023-04-25T11:54:53.860Z,29.99
2023-04-25T11:55:53.980Z,29.40
2023-04-25T11:56:53.918Z,29.74
2023-04-25T11:57:53.898Z,29.64
2023-04-25T11:58:53.934Z,29.61
2023-04-25T11:59:53.893Z,29.82
2023-04-25T12:00:53.919Z,29.78
2023-04-25T12:01:53.904Z,29.67
2023-04-25T12:02:54.140Z,29.50
2023-04-25T12:03:54.064Z,29.44
2023-04-25T12:04:54.021Z,29.68
2023-04-25T12:05:54.227Z,29.67
2023-04-25T12:06:54.158Z,29.54
2023-04-25T12:07:54.020Z,29.59
2023-04-25T12:08:54.024Z,29.59
2023-04-25T12:09:54.417Z,29.66
2023-04-25T12:10:54.009Z,29.60
2023-04-25T12:11:54.019Z,29.63
2023-04-25T12:12:54.005Z,29.64
2023-04-25T12:13:54.674Z,29.45
2023-04-25T12:14:54.033Z,29.59
2023-04-25T12:15:54.084Z,29.36
2023-04-25T12:16:54.013Z,29.22
2023-04-25T12:17:54.070Z,28.65
2023-04-25T12:18:54.145Z,28.77
2023-04-25T12:19:54.065Z,28.57
2023-04-25T12:20:54.081Z,28.75
2023-04-25T12:21:58.352Z,28.03
2023-04-25T12:22:55.109Z,28.24
2023-04-25T12:23:54.084Z,28.09
2023-04-25T12:24:54.115Z,28.42
2023-04-25T12:25:54.063Z,27.95
2023-04-25T12:26:54.178Z,28.03
2023-04-25T12:27:54.020Z,27.72
2023-04-25T12:28:54.201Z,26.62
2023-04-25T12:29:54.045Z,27.07
2023-04-25T12:30:54.184Z,27.50
2023-04-25T12:31:54.082Z,26.71
2023-04-25T12:32:54.078Z,26.80
2023-04-25T12:33:53.997Z,27.21
2023-04-25T12:34:54.003Z,26.69
2023-04-25T12:35:54.012Z,27.39
2023-04-25T12:36:54.007Z,26.24
2023-04-25T12:37:53.981Z,27.35
2023-04-25T12:38:54.103Z,27.64
2023-04-25T12:39:54.000Z,27.38
2023-04-25T12:40:53.959Z,27.92
2023-04-25T12:41:53.957Z,27.47
2023-04-25T12:42:53.935Z,28.02
2023-04-25T12:43:53.908Z,27.85
2023-04-25T12:44:53.950Z,26.00
2023-04-25T12:45:53.919Z,27.27
2023-04-25T12:46:54.000Z,27.66
2023-04-25T12:47:53.991Z,27.99
2023-04-25T12:48:54.012Z,27.73
2023-04-25T12:49:53.954Z,27.72
2023-04-25T12:50:53.950Z,27.67
2023-04-25T12:51:53.965Z,27.78
2023-04-25T12:52:53.976Z,27.78